Time;durP1;ratioP1;P1;durP2;ratioP2;P2;SDS_P1;SDS_P2;PMS_P1;PMS_P2;Temp;Humidity;BMP_temperature;BMP_pressure;BME280_temperature;BME280_humidity;BME280_pressure;Samples;Min_cycle;Max_cycle;Signal;HPM_P1;HPM_P2
2024/02/15 00:00:00;;;;;;;59.45;29.80;;;;;;;;;;5115989;28;20024;-58
2024/02/15 00:02:25;;;;;;;73.20;35.03;;;;;;;;;;5115942;28;20431;-58
2024/02/15 00:04:50;;;;;;;70.07;34.42;;;;;;;;;;5116168;28;20488;-58
2024/02/15 00:07:16;;;;;;;80.30;35.22;;;;;;;;;;5115855;28;20032;-58
2024/02/15 00:09:42;;;;;;;71.68;34.20;;;;;;;;;;5097451;28;20023;-58
2024/02/15 00:12:07;;;;;;;82.00;36.72;;;;;;;;;;5116038;28;20039;-58
2024/02/15 00:14:33;;;;;;;73.40;35.22;;;;;;;;;;5116193;28;20040;-57
2024/02/15 00:16:58;;;;;;;76.40;34.63;;;;;;;;;;5115650;28;20085;-58
2024/02/15 00:19:23;;;;;;;71.63;33.85;;;;;;;;;;5115620;28;20024;-58
2024/02/15 00:21:49;;;;;;;70.22;32.72;;;;;;;;;;5115391;28;20093;-58
2024/02/15 00:24:15;;;;;;;72.07;33.13;;;;;;;;;;5115563;28;20034;-57
2024/02/15 00:26:42;;;;;;;70.57;32.78;;;;;;;;;;5115731;28;20046;-58
2024/02/15 00:29:07;;;;;;;64.80;31.63;;;;;;;;;;5115425;28;20043;-58
2024/02/15 00:31:33;;;;;;;64.25;31.00;;;;;;;;;;5115650;28;20027;-58
2024/02/15 00:33:59;;;;;;;60.55;29.33;;;;;;;;;;5115602;28;20035;-57
2024/02/15 00:36:24;;;;;;;57.85;28.60;;;;;;;;;;5115513;28;20026;-57
2024/02/15 00:38:49;;;;;;;59.00;28.80;;;;;;;;;;5115336;28;20100;-57
2024/02/15 00:41:15;;;;;;;58.30;28.98;;;;;;;;;;5115256;28;20027;-57
2024/02/15 00:43:40;;;;;;;54.38;27.80;;;;;;;;;;5115165;28;20546;-57
2024/02/15 00:46:05;;;;;;;52.20;27.00;;;;;;;;;;5115422;28;20118;-56
2024/02/15 00:48:31;;;;;;;52.00;27.10;;;;;;;;;;5115328;28;20027;-56
2024/02/15 00:50:57;;;;;;;56.63;27.20;;;;;;;;;;5115025;28;20027;-57
2024/02/15 00:53:23;;;;;;;54.75;29.00;;;;;;;;;;5115273;28;20023;-56
2024/02/15 00:55:48;;;;;;;46.90;26.35;;;;;;;;;;5115411;28;20036;-56
2024/02/15 00:58:14;;;;;;;47.15;24.63;;;;;;;;;;5113977;28;20118;-56
2024/02/15 01:00:39;;;;;;;44.22;24.40;;;;;;;;;;5115115;28;20110;-56
2024/02/15 01:03:04;;;;;;;45.80;24.33;;;;;;;;;;5115076;28;20024;-57
2024/02/15 01:05:30;;;;;;;49.17;25.05;;;;;;;;;;5114735;28;20465;-57
2024/02/15 01:07:56;;;;;;;44.40;24.77;;;;;;;;;;5114989;28;20047;-58
2024/02/15 01:10:22;;;;;;;43.53;23.90;;;;;;;;;;5114963;28;20448;-57
2024/02/15 01:12:48;;;;;;;45.40;24.23;;;;;;;;;;5115196;28;20035;-57
2024/02/15 01:15:18;;;;;;;43.65;23.70;;;;;;;;;;5114781;28;20031;-54
2024/02/15 01:17:43;;;;;;;48.72;24.27;;;;;;;;;;5114844;28;20034;-55
2024/02/15 01:20:09;;;;;;;45.78;24.33;;;;;;;;;;5114513;28;20023;-54
2024/02/15 01:22:34;;;;;;;46.50;24.85;;;;;;;;;;5114466;28;20041;-54
2024/02/15 01:25:00;;;;;;;42.03;24.70;;;;;;;;;;5114728;28;20040;-54
2024/02/15 01:27:30;;;;;;;48.22;26.23;;;;;;;;;;5114409;28;20027;-54
2024/02/15 01:29:56;;;;;;;45.85;24.35;;;;;;;;;;5114379;28;20035;-54
2024/02/15 01:32:21;;;;;;;52.72;27.88;;;;;;;;;;5114904;28;20074;-55
2024/02/15 01:34:46;;;;;;;50.20;27.25;;;;;;;;;;5114515;28;20055;-55
2024/02/15 01:37:12;;;;;;;48.20;25.73;;;;;;;;;;5114151;28;20035;-55
2024/02/15 01:39:37;;;;;;;48.58;28.90;;;;;;;;;;5114424;28;20047;-55
2024/02/15 01:42:02;;;;;;;49.45;27.30;;;;;;;;;;5114452;28;20102;-55
2024/02/15 01:44:28;;;;;;;48.38;26.45;;;;;;;;;;5114701;28;20031;-55
2024/02/15 01:46:54;;;;;;;44.40;24.83;;;;;;;;;;5114414;28;20023;-55
2024/02/15 01:49:23;;;;;;;41.42;23.70;;;;;;;;;;5114388;28;20031;-55
2024/02/15 01:51:49;;;;;;;39.40;22.88;;;;;;;;;;5114403;28;20030;-55
2024/02/15 01:54:18;;;;;;;44.80;23.77;;;;;;;;;;5095982;28;20032;-54
2024/02/15 01:56:43;;;;;;;44.08;23.33;;;;;;;;;;5114288;28;20119;-55
2024/02/15 01:59:09;;;;;;;43.75;23.75;;;;;;;;;;5079588;28;20110;-54
2024/02/15 02:01:35;;;;;;;40.08;21.67;;;;;;;;;;5078880;28;20377;-55
2024/02/15 02:04:01;;;;;;;38.60;22.27;;;;;;;;;;5114563;28;20016;-54
2024/02/15 02:06:26;;;;;;;40.90;22.65;;;;;;;;;;5113979;28;20036;-55
2024/02/15 02:08:52;;;;;;;48.53;23.48;;;;;;;;;;5113905;28;20035;-55
2024/02/15 02:11:17;;;;;;;44.15;23.85;;;;;;;;;;5100061;28;20487;-55
2024/02/15 02:13:43;;;;;;;41.67;22.58;;;;;;;;;;5118641;28;20088;-54
2024/02/15 02:16:24;;;;;;;40.40;24.00;;;;;;;;;;5117951;28;20131;-55
2024/02/15 02:18:50;;;;;;;43.28;23.25;;;;;;;;;;5118563;28;20032;-54
2024/02/15 02:21:16;;;;;;;41.88;22.27;;;;;;;;;;5118201;28;20537;-55
2024/02/15 02:23:42;;;;;;;40.17;22.17;;;;;;;;;;5099753;28;20102;-54
2024/02/15 02:26:09;;;;;;;42.30;21.95;;;;;;;;;;5118122;28;20038;-54
2024/02/15 02:28:34;;;;;;;42.50;21.65;;;;;;;;;;5118080;28;20474;-55
2024/02/15 02:31:00;;;;;;;40.38;21.98;;;;;;;;;;5117776;28;20073;-55
2024/02/15 02:33:28;;;;;;;37.00;21.60;;;;;;;;;;5117976;28;20023;-55
2024/02/15 02:35:53;;;;;;;42.22;21.95;;;;;;;;;;5117591;28;20035;-56
2024/02/15 02:38:19;;;;;;;38.90;21.40;;;;;;;;;;5117570;28;20046;-56
2024/02/15 02:40:44;;;;;;;41.72;20.50;;;;;;;;;;5117709;28;20050;-56
2024/02/15 02:43:09;;;;;;;41.72;21.02;;;;;;;;;;5117530;28;20019;-55
2024/02/15 02:45:35;;;;;;;34.40;20.13;;;;;;;;;;5118033;28;20035;-56
2024/02/15 02:48:00;;;;;;;36.25;19.00;;;;;;;;;;5117702;28;20380;-56
2024/02/15 02:50:25;;;;;;;36.72;20.30;;;;;;;;;;5117394;28;20456;-55
2024/02/15 02:52:51;;;;;;;39.67;19.77;;;;;;;;;;5117345;28;20382;-58
2024/02/15 02:55:17;;;;;;;33.42;18.30;;;;;;;;;;5117492;28;20030;-57
2024/02/15 02:57:42;;;;;;;31.63;17.55;;;;;;;;;;5117515;28;20127;-58
2024/02/15 03:00:12;;;;;;;35.17;19.05;;;;;;;;;;5117214;28;20107;-57
2024/02/15 03:02:38;;;;;;;34.92;17.70;;;;;;;;;;5117444;28;20069;-57
2024/02/15 03:05:04;;;;;;;35.35;19.50;;;;;;;;;;5117117;28;20028;-57
2024/02/15 03:07:32;;;;;;;35.03;19.15;;;;;;;;;;5099308;28;20024;-57
2024/02/15 03:09:57;;;;;;;35.35;18.83;;;;;;;;;;5117268;28;20103;-57
2024/02/15 03:12:23;;;;;;;36.55;18.80;;;;;;;;;;5117544;28;20020;-57
2024/02/15 03:14:48;;;;;;;31.73;17.15;;;;;;;;;;5116843;28;20031;-57
2024/02/15 03:17:13;;;;;;;29.50;17.17;;;;;;;;;;5117156;28;20450;-55
2024/02/15 03:19:40;;;;;;;31.38;17.38;;;;;;;;;;5098542;28;20027;-56
2024/02/15 03:22:06;;;;;;;31.92;17.20;;;;;;;;;;5115649;28;20031;-56
2024/02/15 03:24:31;;;;;;;27.58;16.13;;;;;;;;;;5117020;28;20022;-56
2024/02/15 03:26:57;;;;;;;28.98;15.98;;;;;;;;;;5098523;28;20084;-55
2024/02/15 03:29:23;;;;;;;29.52;16.85;;;;;;;;;;5116613;28;20359;-55
2024/02/15 03:31:49;;;;;;;31.02;15.57;;;;;;;;;;5116863;28;20437;-56
2024/02/15 03:34:15;;;;;;;28.63;15.88;;;;;;;;;;5098550;28;20024;-55
2024/02/15 03:36:41;;;;;;;30.30;16.58;;;;;;;;;;5116408;28;20031;-55
2024/02/15 03:39:08;;;;;;;28.35;15.80;;;;;;;;;;5116760;28;20538;-55
2024/02/15 03:41:33;;;;;;;31.02;16.85;;;;;;;;;;5081361;28;20023;-55
2024/02/15 03:43:59;;;;;;;29.85;15.95;;;;;;;;;;5116344;28;20492;-55
2024/02/15 03:46:25;;;;;;;27.00;15.27;;;;;;;;;;5116581;28;20032;-55
2024/02/15 03:48:51;;;;;;;26.83;14.90;;;;;;;;;;5116544;28;20031;-54
2024/02/15 03:51:20;;;;;;;25.38;14.45;;;;;;;;;;5116518;28;20068;-55
2024/02/15 03:53:46;;;;;;;27.90;14.60;;;;;;;;;;5116148;28;20024;-57
2024/02/15 03:56:11;;;;;;;31.48;14.88;;;;;;;;;;5098395;28;20446;-56
2024/02/15 03:58:37;;;;;;;25.70;14.88;;;;;;;;;;5116630;28;20103;-54
2024/02/15 04:01:06;;;;;;;27.38;15.10;;;;;;;;;;5115829;28;20020;-55
2024/02/15 04:03:34;;;;;;;26.33;14.77;;;;;;;;;;5096992;28;20118;-56
2024/02/15 04:06:00;;;;;;;30.13;15.77;;;;;;;;;;5115921;28;20020;-55
2024/02/15 04:08:25;;;;;;;30.50;16.70;;;;;;;;;;5115900;28;20020;-55
2024/02/15 04:10:50;;;;;;;26.67;15.10;;;;;;;;;;5116135;28;20081;-55
2024/02/15 04:13:16;;;;;;;29.08;14.65;;;;;;;;;;5115820;28;20067;-55
2024/02/15 04:15:43;;;;;;;28.00;15.05;;;;;;;;;;5116231;28;20036;-55
2024/02/15 04:18:10;;;;;;;23.88;13.77;;;;;;;;;;5115948;28;20510;-55
2024/02/15 04:20:36;;;;;;;28.92;14.95;;;;;;;;;;5115651;28;20358;-55
2024/02/15 04:23:01;;;;;;;39.85;20.20;;;;;;;;;;5097321;28;20026;-55
2024/02/15 04:25:27;;;;;;;41.67;21.48;;;;;;;;;;5115822;28;20114;-55
2024/02/15 04:27:53;;;;;;;38.05;19.55;;;;;;;;;;5115510;28;20076;-55
2024/02/15 04:30:19;;;;;;;32.40;19.95;;;;;;;;;;5115689;28;20114;-55
2024/02/15 04:32:44;;;;;;;34.28;19.42;;;;;;;;;;5115143;28;20031;-55
2024/02/15 04:35:10;;;;;;;35.40;17.75;;;;;;;;;;5115284;28;20028;-55
2024/02/15 04:37:37;;;;;;;42.92;19.70;;;;;;;;;;5115312;28;20034;-55
2024/02/15 04:40:09;;;;;;;41.83;19.63;;;;;;;;;;5115197;28;20393;-55
2024/02/15 04:42:37;;;;;;;43.75;19.67;;;;;;;;;;5115228;28;20031;-56
2024/02/15 04:45:03;;;;;;;39.97;17.90;;;;;;;;;;5115101;28;20031;-60
2024/02/15 04:47:29;;;;;;;32.28;16.95;;;;;;;;;;5115015;28;20063;-55
2024/02/15 04:49:55;;;;;;;28.10;15.70;;;;;;;;;;5115472;28;20024;-55
2024/02/15 04:52:23;;;;;;;27.77;15.75;;;;;;;;;;5097534;28;20027;-55
2024/02/15 04:54:48;;;;;;;29.08;15.23;;;;;;;;;;5114932;28;20053;-55
2024/02/15 04:57:14;;;;;;;26.02;14.32;;;;;;;;;;5096199;28;20477;-57
2024/02/15 04:59:39;;;;;;;28.60;14.07;;;;;;;;;;5097058;28;20031;-57
2024/02/15 05:02:05;;;;;;;27.67;14.63;;;;;;;;;;5115146;28;20028;-57
2024/02/15 05:04:31;;;;;;;27.33;13.82;;;;;;;;;;5115339;28;20054;-58
2024/02/15 05:06:56;;;;;;;21.23;13.88;;;;;;;;;;5114627;28;20075;-58
2024/02/15 05:09:22;;;;;;;23.35;13.73;;;;;;;;;;5112698;28;20028;-57
2024/02/15 05:11:48;;;;;;;21.73;13.60;;;;;;;;;;5112700;28;20032;-58
2024/02/15 05:14:18;;;;;;;25.63;13.70;;;;;;;;;;5112842;28;20034;-58
2024/02/15 05:16:44;;;;;;;;;;;;;;;;;;5113553;28;20037;-57
2024/02/15 05:19:12;;;;;;;35.88;16.45;;;;;;;;;;5112484;28;19915;-58
2024/02/15 05:21:38;;;;;;;39.85;17.80;;;;;;;;;;5112807;28;20032;-57
2024/02/15 05:24:04;;;;;;;38.65;19.98;;;;;;;;;;5096257;28;20077;-58
2024/02/15 05:26:29;;;;;;;45.10;20.38;;;;;;;;;;5114654;28;20034;-58
2024/02/15 05:28:54;;;;;;;41.28;20.83;;;;;;;;;;5114656;28;20114;-58
2024/02/15 05:31:20;;;;;;;42.50;21.27;;;;;;;;;;5114598;28;20074;-58
2024/02/15 05:33:47;;;;;;;44.45;20.45;;;;;;;;;;5114613;28;20028;-57
2024/02/15 05:36:21;;;;;;;36.42;18.15;;;;;;;;;;5114739;28;20465;-57
2024/02/15 05:38:47;;;;;;;42.78;18.02;;;;;;;;;;5114325;28;20084;-57
2024/02/15 05:41:13;;;;;;;44.58;19.45;;;;;;;;;;5114507;28;20028;-57
2024/02/15 05:43:38;;;;;;;32.47;16.00;;;;;;;;;;5096094;28;20035;-57
2024/02/15 05:46:04;;;;;;;29.85;14.80;;;;;;;;;;5113907;28;20038;-57
2024/02/15 05:48:30;;;;;;;25.27;14.02;;;;;;;;;;5114160;28;20051;-57
2024/02/15 05:50:55;;;;;;;22.33;13.23;;;;;;;;;;5096296;28;20390;-57
2024/02/15 05:53:21;;;;;;;24.33;12.98;;;;;;;;;;5114280;28;20050;-57
2024/02/15 05:55:49;;;;;;;21.67;11.65;;;;;;;;;;5114312;28;20066;-57
2024/02/15 05:58:15;;;;;;;28.13;13.63;;;;;;;;;;5114629;28;20107;-57
2024/02/15 06:00:40;;;;;;;20.90;12.23;;;;;;;;;;5114076;28;20051;-57
2024/02/15 06:03:06;;;;;;;19.10;12.02;;;;;;;;;;5114611;28;20020;-57
2024/02/15 06:05:32;;;;;;;22.40;11.52;;;;;;;;;;5114545;28;20032;-57
2024/02/15 06:07:58;;;;;;;20.02;11.45;;;;;;;;;;5113991;28;20147;-59
2024/02/15 06:10:25;;;;;;;21.02;11.63;;;;;;;;;;5114231;28;20377;-55
2024/02/15 06:12:51;;;;;;;20.73;11.48;;;;;;;;;;5113920;28;20118;-55
2024/02/15 06:15:17;;;;;;;22.38;12.02;;;;;;;;;;5095913;28;20119;-55
2024/02/15 06:17:45;;;;;;;25.15;13.05;;;;;;;;;;5114162;28;20423;-55
2024/02/15 06:20:13;;;;;;;22.52;12.70;;;;;;;;;;5114112;28;20023;-55
2024/02/15 06:22:39;;;;;;;24.25;13.00;;;;;;;;;;5114152;28;20028;-55
2024/02/15 06:25:05;;;;;;;24.00;12.68;;;;;;;;;;5114356;28;20015;-55
2024/02/15 06:27:32;;;;;;;21.70;13.38;;;;;;;;;;5114087;28;20118;-55
2024/02/15 06:40:54;;;;;;;18.58;10.20;;;;;;;;;;5113559;28;20076;-53
2024/02/15 06:43:19;;;;;;;16.05;10.23;;;;;;;;;;5113666;28;20031;-54
2024/02/15 06:45:46;;;;;;;20.58;10.43;;;;;;;;;;5113620;28;20111;-53
2024/02/15 06:48:12;;;;;;;17.80;9.82;;;;;;;;;;5113874;28;20122;-54
2024/02/15 06:50:38;;;;;;;18.65;10.63;;;;;;;;;;5113838;28;20063;-54
2024/02/15 06:53:04;;;;;;;18.60;11.45;;;;;;;;;;5113598;28;20032;-53
2024/02/15 06:55:29;;;;;;;16.08;10.63;;;;;;;;;;5114661;28;20476;-54
2024/02/15 06:57:55;;;;;;;19.63;11.07;;;;;;;;;;5117281;28;20500;-53
2024/02/15 07:00:20;;;;;;;20.00;11.18;;;;;;;;;;5117226;28;20020;-54
2024/02/15 07:02:45;;;;;;;18.25;11.20;;;;;;;;;;5117740;28;20039;-55
2024/02/15 07:05:11;;;;;;;17.80;10.55;;;;;;;;;;5117034;28;20096;-53
2024/02/15 07:07:38;;;;;;;13.63;8.30;;;;;;;;;;5117358;28;20034;-54
2024/02/15 07:10:05;;;;;;;15.02;9.40;;;;;;;;;;5116958;28;20110;-54
2024/02/15 07:12:32;;;;;;;16.80;9.68;;;;;;;;;;5116970;28;20396;-53
2024/02/15 07:14:57;;;;;;;12.85;7.80;;;;;;;;;;5116868;28;20420;-53
2024/02/15 07:17:23;;;;;;;14.23;7.50;;;;;;;;;;5117171;28;20027;-54
2024/02/15 07:19:51;;;;;;;13.85;8.07;;;;;;;;;;5116807;28;20089;-54
2024/02/15 07:22:16;;;;;;;16.13;6.75;;;;;;;;;;5116825;28;20475;-53
2024/02/15 07:24:42;;;;;;;11.48;7.18;;;;;;;;;;5098389;28;20077;-53
2024/02/15 07:27:07;;;;;;;12.70;6.78;;;;;;;;;;5116716;28;20508;-53
2024/02/15 07:29:33;;;;;;;14.18;7.72;;;;;;;;;;5116898;28;20023;-54
2024/02/15 07:32:04;;;;;;;13.30;7.60;;;;;;;;;;5116685;28;20032;-54
2024/02/15 07:34:32;;;;;;;13.25;7.68;;;;;;;;;;5116717;28;20024;-53
2024/02/15 07:36:58;;;;;;;15.15;7.80;;;;;;;;;;5116768;28;20042;-53
2024/02/15 07:39:24;;;;;;;15.10;8.02;;;;;;;;;;5116211;28;20447;-53
2024/02/15 07:41:53;;;;;;;13.63;7.95;;;;;;;;;;5116440;28;20024;-53
2024/02/15 07:44:18;;;;;;;15.68;8.98;;;;;;;;;;5116672;28;20102;-53
2024/02/15 07:46:44;;;;;;;14.35;8.45;;;;;;;;;;5116335;28;20476;-53
2024/02/15 07:49:09;;;;;;;13.43;7.80;;;;;;;;;;5116217;28;20039;-53
2024/02/15 07:51:35;;;;;;;13.68;7.85;;;;;;;;;;5116544;28;20032;-59
2024/02/15 07:54:01;;;;;;;12.80;7.75;;;;;;;;;;5081052;28;20027;-60
2024/02/15 07:56:26;;;;;;;12.35;7.60;;;;;;;;;;5116069;28;20384;-60
2024/02/15 07:58:52;;;;;;;16.05;8.50;;;;;;;;;;5116403;28;20020;-60
2024/02/15 08:01:20;;;;;;;13.05;8.65;;;;;;;;;;5116094;28;20535;-60
2024/02/15 08:03:46;;;;;;;14.13;8.18;;;;;;;;;;5116278;28;20458;-59
2024/02/15 08:06:12;;;;;;;12.23;7.47;;;;;;;;;;5098045;28;20034;-60
2024/02/15 08:08:41;;;;;;;12.98;6.85;;;;;;;;;;5115407;28;20189;-60
2024/02/15 08:11:14;;;;;;;12.30;7.43;;;;;;;;;;5116015;28;20431;-60
2024/02/15 08:13:54;;;;;;;14.15;7.93;;;;;;;;;;5116023;28;20027;-60
2024/02/15 08:16:22;;;;;;;13.00;7.68;;;;;;;;;;5115436;28;20036;-60
2024/02/15 08:18:48;;;;;;;14.70;8.95;;;;;;;;;;5115465;28;20032;-59
2024/02/15 08:21:14;;;;;;;16.70;8.77;;;;;;;;;;5115338;28;20028;-60
2024/02/15 08:23:39;;;;;;;19.27;10.23;;;;;;;;;;5096383;28;20018;-59
2024/02/15 08:26:05;;;;;;;16.23;8.85;;;;;;;;;;5114681;28;20031;-59
2024/02/15 08:28:30;;;;;;;15.75;9.10;;;;;;;;;;5096359;28;20115;-59
2024/02/15 08:31:33;;;;;;;14.38;8.23;;;;;;;;;;5137054;22;20134;-55
2024/02/15 08:34:01;;;;;;;14.95;7.80;;;;;;;;;;5111296;22;20078;-59
2024/02/15 08:36:26;;;;;;;13.30;7.50;;;;;;;;;;5134108;22;20051;-53
2024/02/15 08:38:51;;;;;;;11.75;7.47;;;;;;;;;;5115592;28;20102;-53
2024/02/15 08:41:20;;;;;;;12.02;7.50;;;;;;;;;;5115274;28;20432;-53
2024/02/15 08:43:48;;;;;;;13.18;7.15;;;;;;;;;;5097557;28;20034;-53
2024/02/15 08:46:14;;;;;;;10.25;6.63;;;;;;;;;;5115446;28;20035;-54
2024/02/15 08:48:40;;;;;;;10.73;7.13;;;;;;;;;;5115183;28;20084;-53
2024/02/15 08:51:09;;;;;;;10.95;6.65;;;;;;;;;;5115375;28;20036;-53
2024/02/15 08:53:36;;;;;;;8.07;5.40;;;;;;;;;;5115554;28;20165;-53
2024/02/15 08:56:02;;;;;;;8.18;5.50;;;;;;;;;;5115180;28;20040;-53
2024/02/15 08:58:27;;;;;;;7.63;5.07;;;;;;;;;;5115236;28;20026;-53
2024/02/15 09:00:54;;;;;;;7.63;5.25;;;;;;;;;;5115122;28;20026;-54
2024/02/15 09:03:19;;;;;;;5.65;4.90;;;;;;;;;;5114839;28;20019;-54
2024/02/15 09:05:44;;;;;;;8.18;5.07;;;;;;;;;;5114778;28;20037;-54
2024/02/15 09:08:11;;;;;;;5.30;4.43;;;;;;;;;;5115523;28;20043;-54
2024/02/15 09:10:38;;;;;;;4.57;3.92;;;;;;;;;;5115004;28;20072;-56
2024/02/15 09:13:06;;;;;;;5.70;4.63;;;;;;;;;;5114662;28;20057;-56
2024/02/15 09:15:31;;;;;;;5.78;4.05;;;;;;;;;;5114857;28;20020;-56
2024/02/15 09:17:57;;;;;;;5.30;4.30;;;;;;;;;;5114589;28;20016;-56
2024/02/15 09:20:25;;;;;;;6.35;4.70;;;;;;;;;;5113709;28;20359;-56
2024/02/15 09:22:51;;;;;;;6.25;4.18;;;;;;;;;;5114839;28;20046;-56
2024/02/15 09:25:16;;;;;;;6.65;5.43;;;;;;;;;;5114789;28;20490;-56
2024/02/15 09:27:42;;;;;;;4.38;3.95;;;;;;;;;;5114746;28;20023;-55
2024/02/15 09:30:10;;;;;;;5.20;4.03;;;;;;;;;;5114661;28;20122;-56
2024/02/15 09:32:38;;;;;;;5.13;3.80;;;;;;;;;;5114669;28;20035;-56
2024/02/15 09:35:07;;;;;;;6.45;4.60;;;;;;;;;;5114246;28;20035;-56
2024/02/15 09:37:33;;;;;;;20.58;11.02;;;;;;;;;;5114174;28;20432;-56
2024/02/15 09:40:03;;;;;;;10.27;5.97;;;;;;;;;;5114601;28;20028;-56
2024/02/15 09:42:29;;;;;;;13.63;6.35;;;;;;;;;;5096129;28;20134;-56
2024/02/15 09:44:54;;;;;;;7.78;5.28;;;;;;;;;;5114510;28;20485;-56
2024/02/15 09:47:20;;;;;;;5.93;4.03;;;;;;;;;;5114771;28;20433;-56
2024/02/15 09:49:45;;;;;;;5.00;3.95;;;;;;;;;;5095925;28;20032;-56
2024/02/15 09:52:17;;;;;;;5.60;3.88;;;;;;;;;;5114156;28;20024;-56
2024/02/15 09:54:43;;;;;;;4.55;3.50;;;;;;;;;;5114597;28;20031;-56
2024/02/15 09:57:09;;;;;;;3.95;3.50;;;;;;;;;;5114392;28;20027;-56
2024/02/15 09:59:36;;;;;;;5.60;3.50;;;;;;;;;;5114376;28;20027;-56
2024/02/15 10:02:01;;;;;;;2.90;2.60;;;;;;;;;;5114362;28;20031;-56
2024/02/15 10:04:27;;;;;;;3.22;3.00;;;;;;;;;;5114448;28;20032;-56
2024/02/15 10:06:52;;;;;;;3.65;2.90;;;;;;;;;;5114014;28;20021;-56
2024/02/15 10:09:26;;;;;;;2.60;2.40;;;;;;;;;;5114301;28;20030;-56
2024/02/15 10:11:58;;;;;;;2.38;2.17;;;;;;;;;;5114291;28;20450;-56
2024/02/15 10:14:25;;;;;;;3.13;2.28;;;;;;;;;;5114468;28;20383;-56
2024/02/15 10:16:52;;;;;;;2.60;2.40;;;;;;;;;;5114138;28;20039;-56
2024/02/15 10:19:18;;;;;;;3.28;2.63;;;;;;;;;;5114200;28;20106;-56
2024/02/15 10:21:43;;;;;;;3.38;2.08;;;;;;;;;;5113881;28;20051;-56
2024/02/15 10:24:09;;;;;;;2.45;1.98;;;;;;;;;;5114134;28;20480;-56
2024/02/15 10:26:35;;;;;;;2.20;1.98;;;;;;;;;;5114085;28;20084;-56
2024/02/15 10:29:10;;;;;;;2.67;2.47;;;;;;;;;;5114074;28;20024;-56
2024/02/15 10:31:37;;;;;;;3.47;2.45;;;;;;;;;;5116897;28;20473;-56
2024/02/15 10:34:04;;;;;;;3.20;2.33;;;;;;;;;;5117744;28;20024;-56
2024/02/15 10:36:30;;;;;;;3.42;3.00;;;;;;;;;;5117596;28;20055;-56
2024/02/15 10:39:10;;;;;;;2.55;2.28;;;;;;;;;;5118244;28;20027;-56
2024/02/15 10:41:37;;;;;;;2.95;2.13;;;;;;;;;;5117886;28;20035;-56
2024/02/15 10:44:02;;;;;;;3.92;2.03;;;;;;;;;;5117649;28;20023;-56
2024/02/15 10:46:28;;;;;;;2.22;1.90;;;;;;;;;;5118122;28;20377;-56
2024/02/15 10:48:53;;;;;;;2.53;1.90;;;;;;;;;;5117461;28;20020;-56
2024/02/15 10:51:19;;;;;;;1.55;1.45;;;;;;;;;;5117441;28;20032;-56
2024/02/15 10:53:50;;;;;;;2.22;1.90;;;;;;;;;;5117524;28;20438;-56
2024/02/15 10:56:19;;;;;;;1.92;1.75;;;;;;;;;;5098997;28;20032;-56
2024/02/15 10:58:49;;;;;;;4.25;2.80;;;;;;;;;;5099032;28;20546;-56
2024/02/15 11:01:17;;;;;;;2.10;1.90;;;;;;;;;;5117284;28;20136;-55
2024/02/15 11:04:06;;;;;;;2.13;2.00;;;;;;;;;;5116817;28;20023;-56
2024/02/15 11:06:35;;;;;;;2.15;1.77;;;;;;;;;;5117179;28;20086;-56
2024/02/15 11:09:01;;;;;;;1.63;1.50;;;;;;;;;;5098933;28;20488;-56
2024/02/15 11:11:27;;;;;;;1.83;1.63;;;;;;;;;;5117074;28;20030;-56
2024/02/15 11:14:11;;;;;;;2.35;1.73;;;;;;;;;;5117556;28;20020;-56
2024/02/15 11:16:41;;;;;;;3.25;2.15;;;;;;;;;;5117192;28;20355;-56
2024/02/15 11:19:06;;;;;;;2.13;1.92;;;;;;;;;;5117164;28;20023;-56
2024/02/15 11:21:50;;;;;;;1.98;1.83;;;;;;;;;;5116814;28;20019;-56
2024/02/15 11:24:25;;;;;;;1.90;1.80;;;;;;;;;;5117123;28;20060;-56
2024/02/15 11:26:50;;;;;;;2.40;1.75;;;;;;;;;;5098428;28;20482;-56
2024/02/15 11:29:37;;;;;;;4.40;2.17;;;;;;;;;;5116675;28;20106;-56
2024/02/15 11:32:03;;;;;;;3.25;2.17;;;;;;;;;;5116937;28;20031;-56
2024/02/15 11:34:41;;;;;;;1.60;1.35;;;;;;;;;;5116606;28;20376;-56
2024/02/15 11:37:06;;;;;;;2.15;1.92;;;;;;;;;;5116388;28;20477;-56
2024/02/15 11:39:39;;;;;;;1.50;1.40;;;;;;;;;;5116509;28;20057;-56
2024/02/15 11:42:23;;;;;;;2.25;1.98;;;;;;;;;;5115841;28;20024;-56
2024/02/15 11:44:49;;;;;;;2.22;1.92;;;;;;;;;;5116726;28;20035;-56
2024/02/15 11:47:18;;;;;;;3.72;3.05;;;;;;;;;;5116658;28;20040;-56
2024/02/15 11:49:45;;;;;;;3.50;2.72;;;;;;;;;;5116672;28;20054;-56
2024/02/15 11:52:11;;;;;;;5.30;3.50;;;;;;;;;;5116243;28;20023;-56
2024/02/15 11:54:37;;;;;;;3.25;2.58;;;;;;;;;;5116514;28;20427;-56
2024/02/15 11:57:09;;;;;;;2.13;1.92;;;;;;;;;;5116394;28;20023;-56
2024/02/15 12:00:12;;;;;;;5.25;3.33;;;;;;;;;;5116421;28;20036;-56
2024/02/15 12:19:11;;;;;;;4.35;3.38;;;;;;;;;;5115997;28;20027;-56
2024/02/15 12:21:40;;;;;;;5.20;3.38;;;;;;;;;;5115706;28;20389;-56
2024/02/15 12:24:05;;;;;;;3.85;3.38;;;;;;;;;;5115658;28;20114;-56
2024/02/15 12:26:34;;;;;;;7.07;3.70;;;;;;;;;;5097394;28;20119;-56
2024/02/15 12:29:01;;;;;;;5.68;3.83;;;;;;;;;;5115560;28;20028;-56
2024/02/15 12:31:27;;;;;;;6.30;4.13;;;;;;;;;;5115522;28;20465;-56
2024/02/15 12:34:06;;;;;;;4.57;3.88;;;;;;;;;;5097086;28;20023;-56
2024/02/15 12:36:32;;;;;;;6.20;4.13;;;;;;;;;;5115311;28;20079;-56
2024/02/15 12:39:02;;;;;;;8.93;5.03;;;;;;;;;;5115639;28;20028;-54
2024/02/15 12:41:27;;;;;;;5.32;3.58;;;;;;;;;;5115657;28;20103;-53
2024/02/15 12:43:53;;;;;;;4.03;2.90;;;;;;;;;;5115489;28;20135;-54
2024/02/15 12:46:19;;;;;;;4.65;3.05;;;;;;;;;;5115214;28;20042;-54
2024/02/15 12:48:44;;;;;;;3.55;3.08;;;;;;;;;;5097291;28;20485;-54
2024/02/15 12:51:16;;;;;;;3.28;2.25;;;;;;;;;;5115026;28;20027;-54
2024/02/15 12:53:42;;;;;;;2.50;2.30;;;;;;;;;;5115143;28;20036;-56
2024/02/15 12:56:09;;;;;;;3.03;2.80;;;;;;;;;;5096786;28;20034;-56
2024/02/15 12:58:35;;;;;;;4.43;2.72;;;;;;;;;;5114983;28;20028;-56
2024/02/15 13:01:01;;;;;;;3.22;2.90;;;;;;;;;;5114911;28;20034;-56
2024/02/15 13:03:26;;;;;;;3.70;2.83;;;;;;;;;;5096611;28;20091;-56
2024/02/15 13:05:53;;;;;;;4.63;2.67;;;;;;;;;;5114835;28;20475;-56
2024/02/15 13:08:18;;;;;;;2.65;2.40;;;;;;;;;;5114808;28;20418;-56
2024/02/15 13:10:43;;;;;;;2.50;2.22;;;;;;;;;;5115306;28;20115;-56
2024/02/15 13:13:09;;;;;;;3.30;2.42;;;;;;;;;;5114621;28;20039;-56
2024/02/15 13:15:36;;;;;;;2.35;2.22;;;;;;;;;;5115229;28;20028;-56
2024/02/15 13:18:04;;;;;;;2.50;2.20;;;;;;;;;;5114981;28;20533;-55
2024/02/15 13:20:33;;;;;;;2.53;2.33;;;;;;;;;;5115036;28;20023;-55
2024/02/15 13:23:02;;;;;;;3.03;2.25;;;;;;;;;;5114526;28;20024;-55
2024/02/15 13:25:27;;;;;;;2.80;2.42;;;;;;;;;;5115073;28;20106;-55
2024/02/15 13:27:53;;;;;;;2.53;2.33;;;;;;;;;;5114574;28;20508;-55
2024/02/15 13:30:21;;;;;;;4.30;2.97;;;;;;;;;;5096255;28;20477;-55
2024/02/15 13:32:48;;;;;;;4.18;3.08;;;;;;;;;;5114026;28;20469;-56
2024/02/15 13:35:13;;;;;;;2.97;2.67;;;;;;;;;;5114696;28;20032;-55
2024/02/15 13:37:43;;;;;;;5.75;2.72;;;;;;;;;;5114105;28;20489;-56
2024/02/15 13:40:14;;;;;;;5.03;2.90;;;;;;;;;;5114623;28;20032;-55
2024/02/15 13:42:52;;;;;;;4.60;3.20;;;;;;;;;;5114775;28;20031;-55
2024/02/15 13:45:24;;;;;;;2.72;2.08;;;;;;;;;;5114228;28;20032;-56
2024/02/15 13:47:50;;;;;;;2.50;2.28;;;;;;;;;;5114469;28;20541;-55
2024/02/15 13:50:17;;;;;;;5.22;2.42;;;;;;;;;;5114505;28;20023;-56
2024/02/15 13:52:43;;;;;;;3.25;2.60;;;;;;;;;;5114426;28;20027;-56
2024/02/15 13:55:11;;;;;;;2.88;2.55;;;;;;;;;;5114404;28;20035;-55
2024/02/15 13:57:37;;;;;;;3.17;2.50;;;;;;;;;;5114256;28;20108;-55
2024/02/15 14:00:05;;;;;;;3.63;3.22;;;;;;;;;;5096219;28;20141;-56
2024/02/15 14:02:38;;;;;;;3.65;3.35;;;;;;;;;;5114482;28;20031;-55
2024/02/15 14:05:08;;;;;;;12.43;8.02;;;;;;;;;;5114836;28;20027;-55
2024/02/15 14:07:33;;;;;;;7.68;5.38;;;;;;;;;;5118337;28;20024;-56
2024/02/15 14:09:58;;;;;;;10.65;6.63;;;;;;;;;;5118666;28;20406;-56
2024/02/15 14:12:24;;;;;;;7.40;5.95;;;;;;;;;;5118494;28;20464;-56
2024/02/15 14:14:49;;;;;;;23.00;11.88;;;;;;;;;;5118137;28;20485;-56
2024/02/15 14:17:15;;;;;;;10.20;7.60;;;;;;;;;;5118365;28;20161;-55
2024/02/15 14:19:46;;;;;;;13.05;9.18;;;;;;;;;;5118060;28;20051;-56
2024/02/15 14:22:15;;;;;;;15.40;10.05;;;;;;;;;;5118145;28;20034;-56
2024/02/15 14:24:41;;;;;;;9.38;7.00;;;;;;;;;;5117963;28;20473;-56
2024/02/15 14:27:07;;;;;;;4.60;2.92;;;;;;;;;;5118239;28;20035;-55
2024/02/15 14:29:37;;;;;;;3.42;2.63;;;;;;;;;;5118029;28;20038;-56
2024/02/15 14:34:46;;;;;;;5.60;3.80;;;;;;;;;;5118282;28;20043;-56
2024/02/15 14:37:11;;;;;;;4.63;4.22;;;;;;;;;;5099115;28;20043;-55
2024/02/15 14:39:37;;;;;;;5.15;3.83;;;;;;;;;;5117643;28;20106;-56
2024/02/15 14:42:02;;;;;;;3.63;2.85;;;;;;;;;;5118171;28;20073;-56
2024/02/15 14:44:27;;;;;;;4.15;3.50;;;;;;;;;;5118298;28;20030;-56
2024/02/15 14:46:53;;;;;;;3.30;3.00;;;;;;;;;;5117915;28;20093;-56
2024/02/15 14:49:19;;;;;;;5.10;4.57;;;;;;;;;;5118079;28;20036;-56
2024/02/15 14:51:44;;;;;;;10.23;5.15;;;;;;;;;;5099578;28;20032;-56
2024/02/15 14:54:10;;;;;;;4.53;2.78;;;;;;;;;;5117382;28;20039;-55
2024/02/15 14:56:36;;;;;;;3.83;3.40;;;;;;;;;;5117779;28;20031;-55